Time;durP1;ratioP1;P1;durP2;ratioP2;P2;SDS_P1;SDS_P2;PMS_P1;PMS_P2;Temp;Humidity;BMP_temperature;BMP_pressure;BME280_temperature;BME280_humidity;BME280_pressure;Samples;Min_cycle;Max_cycle;Signal;HPM_P1;HPM_P2
2022/05/24 00:01:10;;;;;;;17.70;11.75;;;;;;;;;;5080985;28;20051;-67
2022/05/24 00:03:35;;;;;;;17.27;10.80;;;;;;;;;;5083897;28;20436;-68
2022/05/24 00:06:00;;;;;;;18.90;10.95;;;;;;;;;;5080592;28;20020;-69
2022/05/24 00:08:26;;;;;;;20.20;10.30;;;;;;;;;;5080849;28;20020;-67
2022/05/24 00:10:53;;;;;;;19.27;10.27;;;;;;;;;;5082797;28;20027;-68
2022/05/24 00:13:18;;;;;;;19.83;10.15;;;;;;;;;;5060237;28;20047;-68
2022/05/24 00:15:43;;;;;;;15.52;9.23;;;;;;;;;;5082515;28;20490;-68
2022/05/24 00:18:13;;;;;;;16.15;9.15;;;;;;;;;;5079043;28;20141;-68
2022/05/24 00:20:43;;;;;;;13.55;9.55;;;;;;;;;;5098452;28;20418;-68
2022/05/24 00:23:09;;;;;;;15.65;9.25;;;;;;;;;;5100218;28;20042;-68
2022/05/24 00:25:36;;;;;;;16.10;9.70;;;;;;;;;;5101069;28;20023;-68
2022/05/24 00:28:02;;;;;;;14.93;9.18;;;;;;;;;;5099579;28;20494;-68
2022/05/24 00:30:27;;;;;;;14.80;8.18;;;;;;;;;;5103722;28;20106;-67
2022/05/24 00:32:54;;;;;;;14.65;8.23;;;;;;;;;;5102090;28;20023;-67
2022/05/24 00:35:19;;;;;;;14.60;8.23;;;;;;;;;;5102101;28;20027;-67
2022/05/24 00:37:46;;;;;;;15.63;8.02;;;;;;;;;;5101214;28;20473;-68
2022/05/24 00:40:32;;;;;;;18.27;8.23;;;;;;;;;;5080723;28;20019;-68
2022/05/24 00:42:57;;;;;;;16.30;8.77;;;;;;;;;;5077989;28;20040;-68
2022/05/24 00:45:28;;;;;;;17.05;8.55;;;;;;;;;;5083128;28;20028;-69
2022/05/24 00:47:55;;;;;;;20.00;8.18;;;;;;;;;;5079940;28;20081;-67
2022/05/24 00:50:25;;;;;;;16.38;7.57;;;;;;;;;;5082408;28;20089;-68
2022/05/24 00:52:57;;;;;;;19.27;7.47;;;;;;;;;;5080690;28;20042;-68
2022/05/24 00:55:24;;;;;;;17.63;7.85;;;;;;;;;;5080984;28;20055;-68
2022/05/24 00:57:58;;;;;;;18.55;7.28;;;;;;;;;;5079503;28;20178;-67
2022/05/24 01:00:23;;;;;;;22.00;8.13;;;;;;;;;;5064601;28;20031;-67
2022/05/24 01:02:48;;;;;;;18.45;6.85;;;;;;;;;;5083255;28;20093;-67
2022/05/24 01:05:22;;;;;;;16.73;7.22;;;;;;;;;;5081343;28;20032;-67
2022/05/24 01:07:50;;;;;;;27.77;7.63;;;;;;;;;;5076448;28;20020;-67
2022/05/24 01:10:25;;;;;;;21.25;7.95;;;;;;;;;;5080675;28;20436;-67
2022/05/24 01:12:52;;;;;;;23.63;8.55;;;;;;;;;;5080121;28;20027;-68
2022/05/24 01:15:19;;;;;;;25.80;8.95;;;;;;;;;;5083240;28;20328;-67
2022/05/24 01:17:45;;;;;;;23.55;9.15;;;;;;;;;;5083085;28;20038;-68
2022/05/24 01:20:11;;;;;;;21.35;10.00;;;;;;;;;;5079189;28;20081;-68
2022/05/24 01:22:42;;;;;;;25.05;10.70;;;;;;;;;;5083926;28;20091;-68
2022/05/24 01:25:17;;;;;;;28.23;11.38;;;;;;;;;;5076433;28;20152;-67
2022/05/24 01:27:42;;;;;;;30.30;12.68;;;;;;;;;;5077268;28;20485;-68
2022/05/24 01:30:08;;;;;;;28.33;11.20;;;;;;;;;;5081160;28;20531;-66
2022/05/24 01:38:02;;;;;;;24.17;12.32;;;;;;;;;;5076331;28;20486;-68
2022/05/24 01:40:28;;;;;;;26.90;12.25;;;;;;;;;;5064942;28;20055;-67
2022/05/24 01:42:53;;;;;;;23.00;11.60;;;;;;;;;;5083286;28;20447;-67
2022/05/24 01:45:22;;;;;;;26.08;12.85;;;;;;;;;;5102024;28;20042;-66
2022/05/24 01:47:50;;;;;;;26.08;12.25;;;;;;;;;;5103719;28;20019;-68
2022/05/24 01:50:19;;;;;;;22.52;12.52;;;;;;;;;;5079579;28;20016;-67
2022/05/24 01:52:55;;;;;;;20.60;12.05;;;;;;;;;;5085528;28;20046;-68
2022/05/24 01:55:32;;;;;;;27.48;13.52;;;;;;;;;;5102500;28;20641;-68
2022/05/24 01:57:59;;;;;;;20.75;12.80;;;;;;;;;;5097939;28;20490;-66
2022/05/24 02:00:25;;;;;;;23.90;14.38;;;;;;;;;;5100875;28;20413;-67
2022/05/24 02:02:50;;;;;;;27.77;14.30;;;;;;;;;;5102498;28;20019;-68
2022/05/24 02:05:33;;;;;;;29.20;15.20;;;;;;;;;;5101331;28;20019;-69
2022/05/24 02:07:58;;;;;;;28.73;15.50;;;;;;;;;;5099829;28;20027;-70
2022/05/24 02:10:23;;;;;;;24.73;14.15;;;;;;;;;;5102252;28;20027;-69
2022/05/24 02:12:52;;;;;;;23.92;14.18;;;;;;;;;;5100413;28;20015;-69
2022/05/24 02:15:20;;;;;;;31.50;15.70;;;;;;;;;;5101223;28;20161;-69
2022/05/24 02:17:54;;;;;;;24.10;16.38;;;;;;;;;;5077994;28;20060;-69
2022/05/24 02:20:26;;;;;;;23.80;14.68;;;;;;;;;;5100097;28;20054;-69
2022/05/24 02:22:52;;;;;;;27.52;14.98;;;;;;;;;;5100357;28;20035;-69
2022/05/24 02:25:20;;;;;;;35.35;16.80;;;;;;;;;;5099900;28;20027;-69
2022/05/24 02:27:47;;;;;;;25.75;16.05;;;;;;;;;;5102417;28;20055;-67
2022/05/24 02:30:13;;;;;;;25.33;15.13;;;;;;;;;;5084864;28;20446;-68
2022/05/24 02:32:39;;;;;;;26.30;16.17;;;;;;;;;;5103370;28;20347;-68
2022/05/24 02:35:07;;;;;;;32.30;15.48;;;;;;;;;;5102622;28;20500;-67
2022/05/24 02:37:33;;;;;;;30.27;15.25;;;;;;;;;;5102465;28;20107;-68
2022/05/24 02:42:42;;;;;;;32.42;14.30;;;;;;;;;;5106002;28;20539;-69
2022/05/24 02:45:08;;;;;;;23.58;12.27;;;;;;;;;;5085277;28;20043;-68
2022/05/24 02:47:33;;;;;;;25.00;11.60;;;;;;;;;;5087310;28;20031;-68
2022/05/24 02:49:58;;;;;;;23.98;9.23;;;;;;;;;;5103266;28;20027;-68
2022/05/24 02:52:24;;;;;;;20.38;8.38;;;;;;;;;;5101982;28;20313;-68
2022/05/24 02:54:49;;;;;;;22.75;7.35;;;;;;;;;;5102814;28;20031;-69
2022/05/24 02:57:14;;;;;;;23.73;6.55;;;;;;;;;;5104246;28;20023;-68
2022/05/24 02:59:40;;;;;;;19.85;6.90;;;;;;;;;;5105024;28;20069;-69
2022/05/24 03:02:06;;;;;;;18.15;5.78;;;;;;;;;;5105779;28;20521;-69
2022/05/24 03:04:32;;;;;;;12.07;4.88;;;;;;;;;;5084743;28;20105;-68
2022/05/24 03:09:42;;;;;;;16.88;4.82;;;;;;;;;;5104254;28;20043;-68
2022/05/24 03:14:53;;;;;;;19.85;5.40;;;;;;;;;;5102497;28;20240;-68
2022/05/24 03:17:19;;;;;;;11.48;3.83;;;;;;;;;;5101955;27;20139;-68
2022/05/24 03:19:45;;;;;;;11.70;4.47;;;;;;;;;;5104230;28;20030;-68
2022/05/24 03:22:13;;;;;;;14.88;4.28;;;;;;;;;;5102450;28;20114;-68
2022/05/24 03:24:38;;;;;;;12.27;4.60;;;;;;;;;;5099682;28;20015;-68
2022/05/24 03:27:13;;;;;;;12.35;3.88;;;;;;;;;;5098070;28;20050;-68
2022/05/24 03:29:42;;;;;;;15.20;3.90;;;;;;;;;;5081973;28;20066;-68
2022/05/24 03:32:08;;;;;;;19.02;4.65;;;;;;;;;;5084710;28;20102;-68
2022/05/24 03:34:34;;;;;;;18.73;4.65;;;;;;;;;;5081896;28;20290;-69
2022/05/24 03:36:59;;;;;;;13.60;4.32;;;;;;;;;;5085397;28;20467;-69
2022/05/24 03:39:24;;;;;;;14.25;4.20;;;;;;;;;;5099380;28;20032;-68
2022/05/24 03:41:49;;;;;;;17.38;4.30;;;;;;;;;;5104705;28;20027;-69
2022/05/24 03:44:15;;;;;;;14.63;4.32;;;;;;;;;;5102191;28;20058;-68
2022/05/24 03:46:41;;;;;;;12.43;4.32;;;;;;;;;;5085408;28;20019;-68
2022/05/24 03:49:06;;;;;;;12.10;4.13;;;;;;;;;;5102561;28;20027;-69
2022/05/24 03:51:32;;;;;;;14.77;5.05;;;;;;;;;;5088761;28;20020;-68
2022/05/24 03:53:57;;;;;;;18.33;4.28;;;;;;;;;;5082298;28;20016;-69
2022/05/24 03:56:23;;;;;;;11.75;4.22;;;;;;;;;;5090016;28;20088;-69
2022/05/24 03:58:48;;;;;;;16.90;4.72;;;;;;;;;;5103194;28;20024;-68
2022/05/24 04:01:14;;;;;;;14.82;4.97;;;;;;;;;;5104465;28;20430;-68
2022/05/24 04:03:39;;;;;;;12.02;4.70;;;;;;;;;;5085980;28;20544;-68
2022/05/24 04:06:05;;;;;;;15.63;4.63;;;;;;;;;;5097562;28;20076;-68
2022/05/24 04:08:31;;;;;;;12.80;4.30;;;;;;;;;;5077670;28;20016;-68
2022/05/24 04:11:00;;;;;;;12.35;4.38;;;;;;;;;;5084473;28;20103;-69
2022/05/24 04:13:25;;;;;;;14.20;4.00;;;;;;;;;;5078963;28;20034;-68
2022/05/24 04:15:51;;;;;;;16.33;4.60;;;;;;;;;;5082375;28;20043;-68
2022/05/24 04:18:16;;;;;;;14.07;4.40;;;;;;;;;;5083419;28;20043;-68
2022/05/24 04:20:42;;;;;;;15.70;5.00;;;;;;;;;;5085780;28;20363;-67
2022/05/24 04:23:11;;;;;;;12.65;3.92;;;;;;;;;;5102428;28;20270;-68
2022/05/24 04:25:37;;;;;;;15.13;3.95;;;;;;;;;;5102656;28;20314;-68
2022/05/24 04:28:02;;;;;;;12.02;3.83;;;;;;;;;;5100613;28;20108;-69
2022/05/24 04:30:28;;;;;;;15.68;4.47;;;;;;;;;;5100878;28;20488;-68
2022/05/24 04:32:53;;;;;;;12.80;4.00;;;;;;;;;;5101775;28;20019;-68
2022/05/24 04:35:19;;;;;;;13.05;3.90;;;;;;;;;;5102170;28;20478;-68
2022/05/24 04:37:45;;;;;;;11.20;4.35;;;;;;;;;;5092994;28;20490;-68
2022/05/24 04:40:11;;;;;;;13.25;4.00;;;;;;;;;;5085852;28;20022;-68
2022/05/24 04:42:36;;;;;;;17.08;3.90;;;;;;;;;;5100308;28;20027;-68
2022/05/24 04:45:06;;;;;;;13.02;4.07;;;;;;;;;;5076347;28;20066;-68
2022/05/24 04:47:31;;;;;;;12.52;3.75;;;;;;;;;;5100614;28;20027;-68
2022/05/24 04:49:58;;;;;;;14.25;4.18;;;;;;;;;;5090547;28;20417;-69
2022/05/24 04:52:25;;;;;;;14.95;4.13;;;;;;;;;;5080238;28;20027;-68
2022/05/24 04:54:51;;;;;;;16.55;4.22;;;;;;;;;;5079237;28;20016;-67
2022/05/24 04:57:17;;;;;;;15.02;3.80;;;;;;;;;;5080605;28;20022;-68
2022/05/24 04:59:42;;;;;;;12.48;3.90;;;;;;;;;;5080576;28;20244;-68
2022/05/24 05:02:07;;;;;;;12.05;4.60;;;;;;;;;;5098307;28;20047;-68
2022/05/24 05:04:33;;;;;;;18.33;4.07;;;;;;;;;;5100675;28;20085;-68
2022/05/24 05:06:58;;;;;;;13.77;4.30;;;;;;;;;;5097701;28;20031;-68
2022/05/24 05:09:24;;;;;;;17.77;3.83;;;;;;;;;;5079588;28;20019;-67
2022/05/24 05:11:50;;;;;;;14.73;3.65;;;;;;;;;;5063782;28;20016;-68
2022/05/24 05:14:15;;;;;;;11.00;3.25;;;;;;;;;;5100670;28;20124;-68
2022/05/24 05:16:41;;;;;;;10.32;3.47;;;;;;;;;;5095869;28;20304;-69
2022/05/24 05:19:07;;;;;;;11.85;3.10;;;;;;;;;;5081038;28;20442;-68
2022/05/24 05:21:33;;;;;;;8.52;3.30;;;;;;;;;;5080214;28;20056;-67
2022/05/24 05:23:59;;;;;;;11.82;3.40;;;;;;;;;;5080794;28;20107;-68
2022/05/24 05:26:25;;;;;;;10.43;2.78;;;;;;;;;;5082150;28;20017;-68
2022/05/24 05:28:51;;;;;;;6.90;2.85;;;;;;;;;;5079704;28;20494;-68
2022/05/24 05:31:16;;;;;;;10.18;2.90;;;;;;;;;;5081652;28;20039;-69
2022/05/24 05:33:42;;;;;;;8.75;2.40;;;;;;;;;;5096006;28;20082;-69
2022/05/24 05:36:08;;;;;;;7.43;1.83;;;;;;;;;;5102857;28;20424;-69
2022/05/24 05:38:33;;;;;;;6.70;1.77;;;;;;;;;;5086993;28;20032;-69
2022/05/24 05:40:59;;;;;;;6.70;1.73;;;;;;;;;;5085220;28;20493;-69
2022/05/24 05:43:25;;;;;;;8.05;2.05;;;;;;;;;;5099089;28;20410;-67
2022/05/24 05:45:51;;;;;;;6.85;2.17;;;;;;;;;;5102065;28;20381;-69
2022/05/24 05:48:16;;;;;;;4.88;2.05;;;;;;;;;;5102285;28;20019;-69
2022/05/24 05:50:42;;;;;;;6.97;2.20;;;;;;;;;;5099430;28;20544;-69
2022/05/24 05:53:07;;;;;;;7.70;2.60;;;;;;;;;;5098911;28;20215;-68
2022/05/24 05:55:35;;;;;;;9.68;2.95;;;;;;;;;;5099967;28;20027;-68
2022/05/24 05:58:01;;;;;;;9.48;3.05;;;;;;;;;;5080331;28;20551;-66
2022/05/24 06:00:27;;;;;;;5.97;3.35;;;;;;;;;;5102089;28;20023;-68
2022/05/24 06:02:52;;;;;;;11.18;4.15;;;;;;;;;;5081711;28;20027;-69
2022/05/24 06:05:17;;;;;;;11.88;4.30;;;;;;;;;;5102775;28;20407;-67
2022/05/24 06:07:44;;;;;;;15.65;4.35;;;;;;;;;;5099784;28;20147;-67
2022/05/24 06:10:11;;;;;;;12.85;3.78;;;;;;;;;;5099820;28;20106;-68
2022/05/24 06:12:36;;;;;;;7.38;3.55;;;;;;;;;;5100417;28;20028;-68
2022/05/24 06:15:02;;;;;;;7.30;2.92;;;;;;;;;;5106197;28;20070;-68
2022/05/24 06:17:28;;;;;;;10.43;3.10;;;;;;;;;;5091196;28;20028;-68
2022/05/24 06:19:53;;;;;;;6.57;2.88;;;;;;;;;;5084206;28;20509;-67
2022/05/24 06:22:18;;;;;;;7.35;2.58;;;;;;;;;;5083691;28;20028;-68
2022/05/24 06:24:46;;;;;;;5.47;2.55;;;;;;;;;;5081262;28;20028;-67
2022/05/24 06:27:11;;;;;;;8.32;2.50;;;;;;;;;;5083717;28;20028;-67
2022/05/24 06:29:37;;;;;;;9.07;2.25;;;;;;;;;;5083868;28;20027;-67
2022/05/24 06:32:03;;;;;;;4.68;1.95;;;;;;;;;;5084920;28;20086;-69
2022/05/24 06:34:31;;;;;;;6.03;2.10;;;;;;;;;;5083847;28;20032;-68
2022/05/24 06:36:57;;;;;;;6.28;1.80;;;;;;;;;;5083990;28;20372;-68
2022/05/24 06:39:22;;;;;;;4.18;1.67;;;;;;;;;;5080605;28;20055;-67
2022/05/24 06:41:48;;;;;;;4.32;1.50;;;;;;;;;;5081206;28;20139;-67
2022/05/24 06:44:14;;;;;;;4.22;1.48;;;;;;;;;;5082821;28;20489;-68
2022/05/24 06:46:39;;;;;;;5.70;1.63;;;;;;;;;;5099530;28;20424;-68
2022/05/24 06:49:05;;;;;;;6.05;2.17;;;;;;;;;;5104460;28;20028;-69
2022/05/24 06:51:31;;;;;;;5.00;1.50;;;;;;;;;;5104025;28;20110;-68
2022/05/24 06:53:57;;;;;;;4.85;1.73;;;;;;;;;;5063966;28;20028;-68
2022/05/24 06:56:23;;;;;;;3.60;1.73;;;;;;;;;;5096501;28;20514;-68
2022/05/24 06:58:48;;;;;;;4.20;1.38;;;;;;;;;;5063570;28;20028;-67
2022/05/24 07:03:58;;;;;;;3.53;1.35;;;;;;;;;;5104803;28;20058;-67
2022/05/24 07:06:24;;;;;;;4.28;1.55;;;;;;;;;;5105930;28;20401;-68
2022/05/24 07:08:50;;;;;;;7.60;2.03;;;;;;;;;;5088589;28;20629;-68
2022/05/24 07:11:19;;;;;;;6.68;1.60;;;;;;;;;;5083030;28;20414;-68
2022/05/24 07:13:45;;;;;;;7.28;1.70;;;;;;;;;;5081499;28;20016;-69
2022/05/24 07:16:10;;;;;;;5.45;1.48;;;;;;;;;;5096437;28;20024;-67
2022/05/24 07:18:36;;;;;;;4.68;1.55;;;;;;;;;;5101912;28;20016;-68
2022/05/24 07:21:01;;;;;;;4.03;1.50;;;;;;;;;;5088191;28;20031;-68
2022/05/24 07:23:26;;;;;;;6.22;1.63;;;;;;;;;;5079383;28;20070;-68
2022/05/24 07:25:53;;;;;;;4.50;1.30;;;;;;;;;;5092838;28;20027;-70
2022/05/24 07:28:19;;;;;;;5.00;1.45;;;;;;;;;;5099065;28;20016;-67
2022/05/24 07:30:46;;;;;;;8.00;1.55;;;;;;;;;;5101161;28;20259;-68
2022/05/24 07:33:13;;;;;;;6.10;1.80;;;;;;;;;;5103919;28;20136;-68
2022/05/24 07:35:38;;;;;;;3.17;1.15;;;;;;;;;;5100496;27;20024;-69
2022/05/24 07:38:07;;;;;;;4.72;1.50;;;;;;;;;;5101201;27;20390;-68
2022/05/24 07:46:20;;;;;;;5.50;2.00;;;;;;;;;;5062952;28;20027;-68
2022/05/24 07:48:45;;;;;;;4.57;1.42;;;;;;;;;;5060865;28;20020;-69
2022/05/24 07:51:11;;;;;;;3.47;1.52;;;;;;;;;;5081544;28;20454;-69
2022/05/24 07:53:37;;;;;;;4.38;1.75;;;;;;;;;;5096087;28;20090;-69
2022/05/24 07:56:02;;;;;;;5.65;2.08;;;;;;;;;;5084499;28;20055;-70
2022/05/24 07:58:27;;;;;;;4.03;1.70;;;;;;;;;;5092131;28;20027;-69
2022/05/24 08:00:57;;;;;;;9.45;2.10;;;;;;;;;;5102755;28;20098;-69
2022/05/24 08:03:22;;;;;;;7.43;2.92;;;;;;;;;;5104969;28;20443;-70
2022/05/24 08:05:47;;;;;;;9.32;2.72;;;;;;;;;;5102268;28;20024;-70
2022/05/24 08:08:14;;;;;;;11.48;3.17;;;;;;;;;;5088680;28;20026;-70
2022/05/24 08:10:39;;;;;;;7.38;2.90;;;;;;;;;;5081265;28;20502;-68
2022/05/24 08:13:06;;;;;;;6.65;2.67;;;;;;;;;;5063934;28;20023;-69
2022/05/24 08:15:31;;;;;;;6.13;3.22;;;;;;;;;;5085544;28;20064;-69
2022/05/24 08:17:57;;;;;;;11.02;4.63;;;;;;;;;;5080334;28;20054;-69
2022/05/24 08:20:22;;;;;;;8.07;4.10;;;;;;;;;;5094479;28;20047;-69
2022/05/24 08:22:57;;;;;;;5.65;4.93;;;;;;;;;;5101674;28;20058;-68
2022/05/24 08:25:22;;;;;;;11.30;4.82;;;;;;;;;;5105501;28;20115;-69
2022/05/24 08:27:48;;;;;;;6.47;4.60;;;;;;;;;;5100931;28;20090;-69
2022/05/24 08:30:14;;;;;;;7.68;4.50;;;;;;;;;;5104206;28;20258;-69
2022/05/24 08:32:41;;;;;;;8.15;3.90;;;;;;;;;;5103449;28;20027;-70
2022/05/24 08:35:08;;;;;;;6.65;3.60;;;;;;;;;;5092526;28;20490;-67
2022/05/24 08:37:33;;;;;;;6.35;3.58;;;;;;;;;;5084730;28;20109;-67
2022/05/24 08:39:59;;;;;;;7.60;3.78;;;;;;;;;;5081589;28;20524;-68
2022/05/24 08:42:33;;;;;;;8.15;3.65;;;;;;;;;;5082984;28;20354;-68
2022/05/24 08:50:45;;;;;;;5.35;2.63;;;;;;;;;;5082961;28;20308;-69
2022/05/24 08:53:12;;;;;;;7.00;3.33;;;;;;;;;;5083351;28;20023;-67
2022/05/24 08:55:38;;;;;;;7.03;3.72;;;;;;;;;;5085284;28;20149;-68
2022/05/24 08:58:05;;;;;;;7.63;3.95;;;;;;;;;;5079910;28;20410;-68
2022/05/24 09:00:33;;;;;;;7.80;3.65;;;;;;;;;;5083294;28;20024;-68
2022/05/24 09:02:58;;;;;;;5.90;3.63;;;;;;;;;;5081172;28;20016;-68
2022/05/24 09:05:44;;;;;;;8.00;3.80;;;;;;;;;;5085154;28;20031;-67
2022/05/24 09:08:19;;;;;;;7.78;4.22;;;;;;;;;;5070348;28;20271;-69
2022/05/24 09:10:44;;;;;;;6.90;4.30;;;;;;;;;;5080665;28;20100;-69
2022/05/24 09:13:16;;;;;;;11.30;4.38;;;;;;;;;;5079588;28;20020;-68
2022/05/24 09:15:43;;;;;;;10.80;4.22;;;;;;;;;;5083875;28;20036;-68
2022/05/24 09:18:23;;;;;;;10.35;3.95;;;;;;;;;;5079574;28;20137;-69
2022/05/24 09:20:50;;;;;;;7.07;3.70;;;;;;;;;;5079257;28;20053;-69
2022/05/24 09:23:15;;;;;;;6.55;4.10;;;;;;;;;;5081936;28;20066;-68
2022/05/24 09:25:53;;;;;;;8.55;3.92;;;;;;;;;;5083550;28;20009;-67
2022/05/24 09:28:19;;;;;;;7.88;3.85;;;;;;;;;;5062189;28;20028;-68
2022/05/24 09:30:45;;;;;;;6.90;3.60;;;;;;;;;;5097709;28;20029;-68
2022/05/24 09:33:37;;;;;;;5.93;3.72;;;;;;;;;;5100270;28;20043;-69
2022/05/24 09:36:02;;;;;;;6.55;3.83;;;;;;;;;;5097095;28;20394;-68
2022/05/24 09:38:36;;;;;;;5.47;3.88;;;;;;;;;;5101811;28;20019;-68
2022/05/24 09:41:13;;;;;;;7.35;4.38;;;;;;;;;;5101618;28;20042;-69
2022/05/24 09:43:40;;;;;;;7.00;4.35;;;;;;;;;;5101336;28;20020;-68
2022/05/24 09:46:22;;;;;;;8.50;4.05;;;;;;;;;;5100245;28;20313;-68
2022/05/24 09:49:11;;;;;;;8.75;3.83;;;;;;;;;;5106790;28;20048;-68
2022/05/24 09:51:41;;;;;;;13.25;4.07;;;;;;;;;;5096580;28;20081;-67
2022/05/24 09:54:24;;;;;;;12.30;4.53;;;;;;;;;;5105681;28;20259;-68
2022/05/24 09:57:08;;;;;;;8.05;3.83;;;;;;;;;;5100084;28;20432;-68
2022/05/24 09:59:35;;;;;;;6.70;4.65;;;;;;;;;;5107559;28;20452;-71
2022/05/24 10:02:02;;;;;;;7.45;4.68;;;;;;;;;;5103768;28;20118;-69
2022/05/24 10:04:35;;;;;;;8.30;4.97;;;;;;;;;;5107080;28;20024;-69
2022/05/24 10:07:02;;;;;;;9.60;5.03;;;;;;;;;;5103517;27;20020;-70
2022/05/24 10:09:27;;;;;;;7.28;4.25;;;;;;;;;;5104175;28;20469;-68
2022/05/24 10:11:55;;;;;;;8.98;4.30;;;;;;;;;;5100843;28;20020;-67
2022/05/24 10:14:20;;;;;;;6.35;3.60;;;;;;;;;;5106224;28;20073;-69
2022/05/24 10:16:51;;;;;;;8.48;3.92;;;;;;;;;;5105682;28;20057;-67
2022/05/24 10:19:17;;;;;;;9.15;4.15;;;;;;;;;;5104111;28;20095;-68
2022/05/24 10:21:43;;;;;;;6.90;2.95;;;;;;;;;;5108105;28;20494;-68
2022/05/24 10:24:14;;;;;;;8.43;3.28;;;;;;;;;;5104619;28;20020;-69
2022/05/24 10:26:59;;;;;;;6.50;2.90;;;;;;;;;;5099794;28;20050;-68
2022/05/24 10:29:32;;;;;;;10.23;3.47;;;;;;;;;;5085186;28;20455;-69
2022/05/24 10:32:05;;;;;;;7.55;2.80;;;;;;;;;;5085443;28;20091;-69
2022/05/24 10:40:17;;;;;;;9.07;2.50;;;;;;;;;;5104561;28;20544;-67
2022/05/24 10:42:49;;;;;;;4.90;2.20;;;;;;;;;;5099401;28;20202;-67
2022/05/24 10:45:17;;;;;;;5.63;2.13;;;;;;;;;;5084312;28;20529;-68
2022/05/24 10:48:08;;;;;;;6.68;2.55;;;;;;;;;;5093636;28;20248;-67
2022/05/24 10:50:33;;;;;;;5.47;2.10;;;;;;;;;;5102290;28;20023;-69
2022/05/24 10:53:02;;;;;;;5.93;2.63;;;;;;;;;;5103893;28;20381;-67
2022/05/24 10:55:30;;;;;;;6.00;2.45;;;;;;;;;;5105932;28;20026;-67
2022/05/24 10:58:00;;;;;;;5.55;2.28;;;;;;;;;;5101263;27;20023;-67
2022/05/24 11:00:34;;;;;;;2.90;2.00;;;;;;;;;;5105238;28;20039;-67
2022/05/24 11:03:03;;;;;;;3.72;2.00;;;;;;;;;;5104572;28;20103;-67
2022/05/24 11:05:54;;;;;;;8.35;2.15;;;;;;;;;;5107422;28;20551;-68
2022/05/24 11:08:20;;;;;;;4.03;2.05;;;;;;;;;;5063379;28;20520;-68
2022/05/24 11:10:47;;;;;;;6.03;2.50;;;;;;;;;;5105800;28;20013;-68
2022/05/24 11:13:14;;;;;;;5.35;2.67;;;;;;;;;;5101977;28;20027;-68
2022/05/24 11:15:42;;;;;;;5.63;2.55;;;;;;;;;;5104565;28;20053;-68
2022/05/24 11:18:18;;;;;;;6.07;2.00;;;;;;;;;;5102641;28;20015;-67
2022/05/24 11:20:54;;;;;;;4.72;2.30;;;;;;;;;;5105663;28;20470;-68
2022/05/24 11:23:35;;;;;;;4.60;1.90;;;;;;;;;;5101416;28;20402;-67
2022/05/24 11:26:10;;;;;;;6.30;2.08;;;;;;;;;;5103271;28;20110;-67
2022/05/24 11:28:41;;;;;;;5.32;2.08;;;;;;;;;;5103145;28;20043;-68
2022/05/24 11:31:25;;;;;;;10.90;1.80;;;;;;;;;;5103444;28;20041;-66
2022/05/24 11:33:51;;;;;;;5.70;1.90;;;;;;;;;;5105220;28;20521;-66
2022/05/24 11:36:31;;;;;;;5.43;1.70;;;;;;;;;;5103999;28;20733;-67
2022/05/24 11:39:05;;;;;;;3.08;1.67;;;;;;;;;;5102114;28;20446;-66
2022/05/24 11:41:33;;;;;;;5.47;2.22;;;;;;;;;;5102868;28;20087;-67
2022/05/24 11:44:01;;;;;;;5.97;1.80;;;;;;;;;;5103191;28;20016;-65
2022/05/24 11:46:38;;;;;;;5.00;1.70;;;;;;;;;;5104695;28;20228;-67
2022/05/24 11:49:12;;;;;;;6.15;1.70;;;;;;;;;;5101859;28;20016;-67
2022/05/24 11:51:47;;;;;;;4.07;2.00;;;;;;;;;;5104451;27;20073;-67
2022/05/24 11:54:18;;;;;;;10.55;1.73;;;;;;;;;;5100191;28;20112;-67
2022/05/24 11:57:00;;;;;;;6.60;1.80;;;;;;;;;;5101073;28;20051;-66
2022/05/24 11:59:40;;;;;;;5.32;1.70;;;;;;;;;;5104756;28;20015;-67
2022/05/24 12:02:26;;;;;;;4.50;1.77;;;;;;;;;;5102827;28;20092;-66
2022/05/24 12:07:56;;;;;;;5.05;1.60;;;;;;;;;;5090738;28;20081;-68
2022/05/24 12:10:21;;;;;;;2.03;1.30;;;;;;;;;;5082156;28;20031;-68
2022/05/24 12:12:50;;;;;;;5.10;1.67;;;;;;;;;;5081395;28;20024;-68
2022/05/24 12:15:20;;;;;;;6.88;1.63;;;;;;;;;;5083879;28;20043;-68
2022/05/24 12:17:51;;;;;;;4.65;1.23;;;;;;;;;;5081710;28;20135;-68
2022/05/24 12:20:25;;;;;;;3.70;1.25;;;;;;;;;;5084590;28;20108;-68
2022/05/24 12:23:22;;;;;;;5.97;1.63;;;;;;;;;;5089146;28;20107;-68
2022/05/24 12:26:03;;;;;;;4.78;1.75;;;;;;;;;;5084065;28;20056;-68
2022/05/24 12:28:37;;;;;;;3.35;1.35;;;;;;;;;;5102042;28;20512;-68
2022/05/24 12:31:11;;;;;;;5.22;1.65;;;;;;;;;;5103477;28;20091;-68
2022/05/24 12:33:54;;;;;;;2.85;1.20;;;;;;;;;;5104368;28;20042;-67
2022/05/24 12:36:32;;;;;;;4.53;1.50;;;;;;;;;;5101324;28;20429;-67
2022/05/24 12:39:21;;;;;;;3.25;1.35;;;;;;;;;;5099920;28;20011;-67
2022/05/24 12:41:56;;;;;;;3.90;1.35;;;;;;;;;;5102820;28;20069;-68
2022/05/24 12:44:23;;;;;;;3.67;1.30;;;;;;;;;;5101581;28;20472;-68
2022/05/24 12:46:51;;;;;;;2.05;1.10;;;;;;;;;;5104713;28;20026;-67
2022/05/24 12:49:18;;;;;;;4.32;1.23;;;;;;;;;;5101491;28;20088;-68
2022/05/24 12:51:44;;;;;;;5.00;1.20;;;;;;;;;;5105156;28;20012;-67
2022/05/24 12:54:11;;;;;;;6.28;1.23;;;;;;;;;;5097832;28;20378;-67
2022/05/24 12:56:36;;;;;;;5.53;1.17;;;;;;;;;;5101361;28;20027;-68
2022/05/24 12:59:12;;;;;;;2.38;1.05;;;;;;;;;;5102063;28;20027;-67
2022/05/24 13:01:40;;;;;;;4.30;1.30;;;;;;;;;;5103813;28;20242;-67
2022/05/24 13:04:12;;;;;;;2.85;1.00;;;;;;;;;;5103362;28;20039;-67
2022/05/24 13:06:38;;;;;;;3.92;1.10;;;;;;;;;;5105042;28;20108;-67
2022/05/24 13:09:19;;;;;;;5.72;1.23;;;;;;;;;;5081387;28;20023;-67
2022/05/24 13:11:46;;;;;;;2.05;1.05;;;;;;;;;;5082474;28;20073;-66
2022/05/24 13:14:18;;;;;;;3.15;1.00;;;;;;;;;;5083690;28;20175;-68
2022/05/24 13:16:45;;;;;;;3.75;0.70;;;;;;;;;;5102178;28;20034;-66
2022/05/24 13:19:11;;;;;;;2.85;0.90;;;;;;;;;;5101262;28;20019;-67
2022/05/24 13:21:36;;;;;;;2.35;0.85;;;;;;;;;;5103795;28;20030;-67
2022/05/24 13:24:20;;;;;;;2.40;0.88;;;;;;;;;;5099420;28;20058;-66
2022/05/24 13:26:58;;;;;;;0.95;0.55;;;;;;;;;;5101002;28;20057;-67
2022/05/24 13:29:24;;;;;;;2.95;0.70;;;;;;;;;;5098290;28;20124;-67
2022/05/24 13:34:33;;;;;;;1.08;0.57;;;;;;;;;;5104084;28;20070;-67
2022/05/24 13:37:01;;;;;;;1.92;0.60;;;;;;;;;;5102036;28;20059;-67
2022/05/24 13:39:30;;;;;;;1.45;0.60;;;;;;;;;;5098631;28;20028;-68
2022/05/24 13:42:14;;;;;;;1.02;0.45;;;;;;;;;;5102329;28;20015;-67
2022/05/24 13:44:41;;;;;;;2.22;0.80;;;;;;;;;;5100792;28;20055;-68
2022/05/24 13:47:23;;;;;;;0.85;0.65;;;;;;;;;;5086409;28;20027;-67
2022/05/24 13:49:48;;;;;;;2.45;0.65;;;;;;;;;;5082392;28;20093;-66
2022/05/24 13:52:37;;;;;;;1.48;0.60;;;;;;;;;;5079931;28;20054;-68
2022/05/24 13:55:13;;;;;;;3.90;0.68;;;;;;;;;;5081155;28;20021;-67
2022/05/24 13:57:41;;;;;;;3.17;0.80;;;;;;;;;;5080853;28;20581;-67
2022/05/24 14:00:10;;;;;;;2.10;0.70;;;;;;;;;;5080637;28;20055;-67
2022/05/24 14:02:36;;;;;;;1.60;0.70;;;;;;;;;;5080546;28;20046;-68
2022/05/24 14:05:01;;;;;;;2.95;0.68;;;;;;;;;;5082298;28;20394;-67
2022/05/24 14:07:28;;;;;;;2.60;0.68;;;;;;;;;;5081632;28;20066;-67
2022/05/24 14:09:54;;;;;;;0.77;0.60;;;;;;;;;;5078676;28;20024;-67
2022/05/24 14:12:19;;;;;;;1.52;0.70;;;;;;;;;;5080050;28;20024;-68
2022/05/24 14:14:46;;;;;;;2.28;0.70;;;;;;;;;;5081778;28;20546;-67
2022/05/24 14:17:12;;;;;;;2.17;0.63;;;;;;;;;;5080789;28;20024;-67
2022/05/24 14:19:37;;;;;;;2.30;1.00;;;;;;;;;;5081930;28;20031;-68
2022/05/24 14:22:02;;;;;;;0.85;0.70;;;;;;;;;;5082016;28;20038;-68
2022/05/24 14:24:29;;;;;;;1.88;0.68;;;;;;;;;;5077093;28;20452;-66
2022/05/24 14:26:56;;;;;;;3.40;0.77;;;;;;;;;;5080235;28;20118;-67
2022/05/24 14:29:22;;;;;;;5.28;0.80;;;;;;;;;;5080574;28;20028;-68
2022/05/24 14:31:48;;;;;;;4.22;0.90;;;;;;;;;;5083374;28;20021;-66
2022/05/24 14:34:14;;;;;;;2.38;0.70;;;;;;;;;;5082011;28;20031;-68
2022/05/24 14:36:39;;;;;;;3.60;0.60;;;;;;;;;;5086074;28;20024;-66
2022/05/24 14:39:05;;;;;;;2.15;0.82;;;;;;;;;;5082322;28;20024;-66
2022/05/24 14:41:30;;;;;;;2.10;0.85;;;;;;;;;;5065935;28;20040;-66
2022/05/24 14:44:00;;;;;;;2.53;0.75;;;;;;;;;;5086064;28;20024;-67
2022/05/24 14:46:25;;;;;;;1.42;0.60;;;;;;;;;;5091034;28;20024;-67
2022/05/24 14:48:51;;;;;;;2.47;0.73;;;;;;;;;;5105909;28;20130;-66
2022/05/24 14:51:23;;;;;;;3.55;1.00;;;;;;;;;;5104545;28;20019;-67
2022/05/24 14:53:49;;;;;;;3.63;1.08;;;;;;;;;;5103184;28;20034;-67
2022/05/24 14:56:14;;;;;;;2.38;1.08;;;;;;;;;;5103804;28;20031;-67
2022/05/24 14:58:40;;;;;;;3.92;1.20;;;;;;;;;;5103643;28;20471;-67
2022/05/24 15:01:06;;;;;;;1.75;0.90;;;;;;;;;;5107293;28;20045;-67
2022/05/24 15:03:31;;;;;;;3.95;1.20;;;;;;;;;;5101892;28;20465;-66
2022/05/24 15:05:57;;;;;;;1.58;0.80;;;;;;;;;;5106463;28;20023;-66
2022/05/24 15:16:35;;;;;;;5.47;1.30;;;;;;;;;;5102205;28;20055;-67
2022/05/24 15:19:01;;;;;;;4.05;1.15;;;;;;;;;;5100318;28;20027;-66
2022/05/24 15:21:28;;;;;;;5.57;1.60;;;;;;;;;;5082825;28;20284;-66
2022/05/24 15:23:56;;;;;;;3.85;1.55;;;;;;;;;;5082676;28;20020;-67
2022/05/24 15:26:23;;;;;;;3.72;1.67;;;;;;;;;;5063371;28;20114;-68
2022/05/24 15:28:54;;;;;;;2.40;1.35;;;;;;;;;;5086200;28;20027;-66
2022/05/24 15:31:20;;;;;;;1.35;1.25;;;;;;;;;;5066852;28;20111;-68